createdAt,value
2018-11-27T00:00:28.305Z,45.23
2018-11-27T00:02:58.786Z,45.25
2018-11-27T00:05:27.293Z,48.75
2018-11-27T00:07:55.623Z,44.75
2018-11-27T00:10:23.951Z,46.55
2018-11-27T00:12:52.428Z,45.28
2018-11-27T00:15:20.721Z,49.77
2018-11-27T00:17:48.990Z,48.40
2018-11-27T00:20:17.264Z,50.50
2018-11-27T00:22:45.695Z,47.38
2018-11-27T00:25:15.837Z,47.73
2018-11-27T00:27:44.173Z,49.27
2018-11-27T00:30:13.592Z,48.65
2018-11-27T00:32:41.917Z,45.88
2018-11-27T00:35:12.331Z,48.10
2018-11-27T00:37:40.758Z,44.18
2018-11-27T00:40:19.188Z,48.00
2018-11-27T00:42:47.521Z,50.45
2018-11-27T00:45:17.017Z,50.28
2018-11-27T00:47:46.272Z,46.18
2018-11-27T00:50:19.510Z,48.55
2018-11-27T00:52:47.971Z,44.77
2018-11-27T00:55:17.122Z,50.10
2018-11-27T00:57:46.336Z,45.03
2018-11-27T01:00:17.640Z,49.88
2018-11-27T01:02:46.095Z,50.55
2018-11-27T01:05:15.334Z,43.30
2018-11-27T01:07:43.737Z,42.62
2018-11-27T01:10:18.124Z,42.25
2018-11-27T01:12:46.498Z,40.20
2018-11-27T01:15:15.524Z,43.68
2018-11-27T01:18:00.575Z,42.38
2018-11-27T01:20:29.068Z,43.45
2018-11-27T01:22:57.393Z,42.83
2018-11-27T01:25:25.677Z,41.90
2018-11-27T01:27:54.043Z,42.38
2018-11-27T01:30:22.913Z,42.17
2018-11-27T01:32:51.397Z,47.93
2018-11-27T01:35:21.164Z,48.60
2018-11-27T01:37:50.520Z,41.92
2018-11-27T01:40:23.579Z,40.58
2018-11-27T01:42:53.795Z,40.55
2018-11-27T01:45:22.575Z,41.90
2018-11-27T01:47:51.126Z,39.48
2018-11-27T01:50:19.858Z,41.55
2018-11-27T01:52:48.426Z,42.58
2018-11-27T01:55:18.717Z,38.15
2018-11-27T01:57:47.244Z,40.60
2018-11-27T02:00:26.558Z,42.13
2018-11-27T02:02:55.497Z,39.58
2018-11-27T02:05:24.340Z,36.28
2018-11-27T02:07:52.697Z,40.52
2018-11-27T02:10:21.116Z,38.85
2018-11-27T02:12:50.318Z,35.68
2018-11-27T02:15:19.822Z,34.43
2018-11-27T02:17:48.157Z,38.73
2018-11-27T02:20:17.065Z,39.63
2018-11-27T02:22:45.520Z,40.10
2018-11-27T02:25:18.087Z,39.40
2018-11-27T02:27:46.444Z,37.58
2018-11-27T02:30:16.535Z,39.08
2018-11-27T02:32:44.864Z,45.05
2018-11-27T02:35:17.215Z,36.93
2018-11-27T02:37:45.942Z,35.28
2018-11-27T02:40:15.434Z,35.38
2018-11-27T02:42:43.884Z,32.83
2018-11-27T02:45:14.949Z,33.95
2018-11-27T02:47:44.091Z,39.20
2018-11-27T02:50:14.718Z,37.03
2018-11-27T02:52:43.200Z,38.28
2018-11-27T02:55:14.386Z,37.25
2018-11-27T02:57:42.856Z,37.08
2018-11-27T03:00:13.098Z,41.05
2018-11-27T03:02:41.556Z,41.88
2018-11-27T03:05:18.155Z,34.55
2018-11-27T03:07:46.495Z,39.92
2018-11-27T03:10:15.581Z,38.70
2018-11-27T03:12:43.861Z,35.43
2018-11-27T03:15:15.285Z,40.30
2018-11-27T03:17:43.625Z,37.38
2018-11-27T03:20:12.927Z,36.77
2018-11-27T03:22:41.276Z,36.75
2018-11-27T03:25:12.648Z,35.35
2018-11-27T03:27:40.946Z,33.48
2018-11-27T03:30:14.429Z,37.50
2018-11-27T03:32:42.869Z,35.70
2018-11-27T03:35:13.180Z,35.80
2018-11-27T03:37:41.575Z,37.90
2018-11-27T03:40:11.328Z,34.58
2018-11-27T03:42:39.680Z,35.88
2018-11-27T03:45:09.540Z,36.88
2018-11-27T03:47:37.963Z,37.25
2018-11-27T03:50:12.239Z,35.23
2018-11-27T03:52:40.738Z,34.03
2018-11-27T03:55:10.004Z,31.30
2018-11-27T03:57:38.403Z,33.28
2018-11-27T04:00:12.146Z,35.85
2018-11-27T04:02:40.583Z,31.80
2018-11-27T04:05:09.755Z,35.88
2018-11-27T04:07:38.209Z,35.20
2018-11-27T04:10:10.011Z,33.88
2018-11-27T04:12:38.491Z,32.90
2018-11-27T04:15:07.078Z,35.05
2018-11-27T04:17:35.476Z,34.78
2018-11-27T04:20:03.963Z,34.83
2018-11-27T04:22:32.622Z,33.58
2018-11-27T04:25:00.970Z,34.50
2018-11-27T04:27:29.299Z,33.42
2018-11-27T04:29:57.660Z,39.38
2018-11-27T04:32:26.032Z,35.20
2018-11-27T04:34:54.491Z,41.73
2018-11-27T04:37:22.839Z,36.68
2018-11-27T04:39:51.207Z,32.98
2018-11-27T04:42:19.521Z,34.40
2018-11-27T04:44:47.904Z,33.15
2018-11-27T04:47:16.533Z,38.25
2018-11-27T04:49:45.211Z,32.83
2018-11-27T04:52:13.742Z,34.67
2018-11-27T04:54:42.093Z,32.35
2018-11-27T04:57:10.394Z,36.13
2018-11-27T04:59:38.856Z,37.95
2018-11-27T05:02:07.140Z,30.37
2018-11-27T05:04:35.472Z,33.58
2018-11-27T05:07:04.196Z,32.55
2018-11-27T05:09:32.682Z,36.00
2018-11-27T05:12:01.046Z,35.88
2018-11-27T05:14:29.330Z,31.90
2018-11-27T05:16:57.738Z,35.25
2018-11-27T05:19:26.063Z,37.08
2018-11-27T05:21:54.529Z,35.63
2018-11-27T05:24:22.939Z,35.15
2018-11-27T05:26:51.390Z,34.13
2018-11-27T05:29:19.909Z,32.15
2018-11-27T05:31:48.340Z,33.25
2018-11-27T05:34:16.679Z,37.30
2018-11-27T05:36:45.071Z,31.85
2018-11-27T05:39:13.489Z,33.08
2018-11-27T05:41:41.822Z,34.67
2018-11-27T05:44:10.158Z,33.88
2018-11-27T05:46:38.474Z,37.17
2018-11-27T05:49:07.019Z,36.70
2018-11-27T05:51:35.536Z,30.65
2018-11-27T05:54:03.854Z,35.33
2018-11-27T05:56:32.192Z,32.42
2018-11-27T05:59:00.665Z,33.48
2018-11-27T06:01:29.188Z,32.63
2018-11-27T06:03:57.668Z,30.65
2018-11-27T06:09:04.462Z,31.48
2018-11-27T06:11:32.903Z,30.77
2018-11-27T06:14:01.526Z,35.13
2018-11-27T06:16:29.979Z,33.78
2018-11-27T06:18:58.341Z,38.83
2018-11-27T06:21:26.710Z,34.60
2018-11-27T06:23:55.034Z,31.05
2018-11-27T06:26:23.530Z,32.20
2018-11-27T06:28:52.008Z,28.60
2018-11-27T06:31:20.435Z,33.92
2018-11-27T06:33:48.752Z,27.48
2018-11-27T06:36:17.076Z,37.55
2018-11-27T06:38:45.522Z,30.92
2018-11-27T06:41:13.879Z,29.80
2018-11-27T06:43:42.344Z,32.13
2018-11-27T06:46:10.689Z,29.10
2018-11-27T06:48:39.079Z,27.82
2018-11-27T06:51:07.704Z,27.42
2018-11-27T06:53:36.317Z,31.17
2018-11-27T06:56:04.785Z,29.90
2018-11-27T06:58:33.130Z,32.58
2018-11-27T07:01:01.482Z,32.70
2018-11-27T07:03:29.821Z,30.20
2018-11-27T07:05:58.134Z,30.32
2018-11-27T07:08:27.418Z,29.18
2018-11-27T07:10:54.795Z,32.73
2018-11-27T07:13:24.436Z,28.02
2018-11-27T07:15:53.141Z,30.85
2018-11-27T07:18:21.472Z,31.12
2018-11-27T07:20:49.759Z,30.92
2018-11-27T07:23:18.122Z,26.62
2018-11-27T07:25:46.461Z,30.05
2018-11-27T07:28:14.777Z,28.83
2018-11-27T07:30:43.235Z,31.68
2018-11-27T07:33:12.073Z,32.03
2018-11-27T07:35:40.588Z,33.23
2018-11-27T07:38:08.926Z,29.90
2018-11-27T07:40:37.419Z,30.68
2018-11-27T07:43:08.895Z,31.07
2018-11-27T07:45:37.396Z,29.90
2018-11-27T07:48:06.823Z,28.92
2018-11-27T07:50:35.263Z,34.90
2018-11-27T07:53:03.743Z,32.40
2018-11-27T07:55:32.169Z,28.55
2018-11-27T07:58:00.715Z,29.52
2018-11-27T08:00:29.223Z,28.23
2018-11-27T08:02:58.737Z,26.42
2018-11-27T08:05:42.114Z,27.35
2018-11-27T08:08:14.077Z,33.05
2018-11-27T08:10:43.386Z,28.60
2018-11-27T08:13:11.826Z,27.45
2018-11-27T08:15:44.449Z,28.92
2018-11-27T08:18:13.054Z,26.10
2018-11-27T08:20:41.346Z,26.05
2018-11-27T08:23:10.714Z,29.45
2018-11-27T08:25:39.009Z,30.30
2018-11-27T08:28:07.678Z,29.48
2018-11-27T08:30:35.964Z,28.35
2018-11-27T08:33:04.266Z,32.48
2018-11-27T08:35:32.616Z,30.95
2018-11-27T08:38:01.521Z,32.35
2018-11-27T08:40:31.928Z,28.83
2018-11-27T08:43:00.317Z,27.25
2018-11-27T08:45:28.585Z,30.37
2018-11-27T08:47:57.066Z,30.35
2018-11-27T08:50:26.613Z,30.55
2018-11-27T08:52:57.106Z,27.82
2018-11-27T08:55:28.538Z,30.52
2018-11-27T08:57:57.075Z,29.80
2018-11-27T09:00:26.203Z,28.45
2018-11-27T09:02:54.753Z,30.00
2018-11-27T09:05:23.208Z,27.52
2018-11-27T09:07:51.506Z,30.50
2018-11-27T09:10:22.948Z,27.98
2018-11-27T09:12:51.238Z,30.32
2018-11-27T09:15:21.470Z,33.05
2018-11-27T09:18:00.155Z,31.42
2018-11-27T09:20:28.465Z,26.95
2018-11-27T09:22:56.839Z,28.85
2018-11-27T09:25:25.340Z,31.87
2018-11-27T09:27:53.735Z,30.65
2018-11-27T09:30:24.224Z,30.70
2018-11-27T09:32:52.675Z,26.30
2018-11-27T09:35:21.034Z,29.70
2018-11-27T09:37:49.470Z,28.27
2018-11-27T09:40:18.937Z,26.17
2018-11-27T09:42:47.290Z,28.42
2018-11-27T09:45:20.742Z,29.55
2018-11-27T09:47:50.334Z,28.15
2018-11-27T09:50:18.746Z,28.10
2018-11-27T09:52:47.069Z,36.35
2018-11-27T09:55:17.319Z,37.17
2018-11-27T09:57:45.677Z,34.10
2018-11-27T10:00:18.143Z,33.65
2018-11-27T10:02:46.506Z,29.52
2018-11-27T10:05:15.183Z,34.05
2018-11-27T10:07:43.443Z,27.58
2018-11-27T10:10:13.898Z,25.15
2018-11-27T10:12:42.176Z,28.52
2018-11-27T10:15:15.520Z,28.50
2018-11-27T10:17:44.366Z,25.77
2018-11-27T10:20:15.190Z,28.35
2018-11-27T10:22:43.354Z,27.42
2018-11-27T10:25:12.006Z,25.52
2018-11-27T10:27:40.492Z,27.17
2018-11-27T10:30:14.039Z,26.10
2018-11-27T10:32:43.102Z,25.50
2018-11-27T10:35:25.417Z,28.35
2018-11-27T10:37:53.745Z,28.62
2018-11-27T10:40:22.214Z,33.63
2018-11-27T10:42:50.929Z,27.85
2018-11-27T10:45:20.575Z,33.88
2018-11-27T10:47:52.758Z,28.52
2018-11-27T10:50:21.295Z,29.55
2018-11-27T10:52:50.638Z,28.73
2018-11-27T10:55:19.607Z,27.85
2018-11-27T10:57:47.937Z,27.52
2018-11-27T11:00:25.558Z,27.37
2018-11-27T11:02:59.314Z,25.50
2018-11-27T11:05:29.697Z,28.42
2018-11-27T11:07:58.011Z,30.15
2018-11-27T11:10:26.345Z,27.75
2018-11-27T11:12:54.727Z,33.48
2018-11-27T11:15:23.245Z,28.15
2018-11-27T11:17:51.547Z,34.25
2018-11-27T11:20:24.630Z,27.60
2018-11-27T11:22:52.939Z,28.35
2018-11-27T11:25:22.477Z,28.05
2018-11-27T11:27:55.071Z,29.02
2018-11-27T11:30:23.935Z,29.50
2018-11-27T11:32:52.150Z,36.35
2018-11-27T11:35:20.516Z,26.12
2018-11-27T11:37:49.469Z,27.85
2018-11-27T11:40:21.064Z,28.05
2018-11-27T11:42:50.962Z,27.30
2018-11-27T11:45:19.297Z,29.02
2018-11-27T11:47:47.663Z,26.75
2018-11-27T11:50:19.793Z,27.20
2018-11-27T11:52:49.573Z,23.02
2018-11-27T11:55:18.553Z,27.55
2018-11-27T11:57:46.902Z,22.55
2018-11-27T12:00:18.403Z,28.80
2018-11-27T12:02:46.712Z,29.48
2018-11-27T12:05:15.114Z,22.70
2018-11-27T12:07:43.441Z,27.02
2018-11-27T12:10:15.603Z,25.40
2018-11-27T12:12:45.083Z,32.42
2018-11-27T12:15:14.383Z,28.65
2018-11-27T12:17:43.384Z,25.57
2018-11-27T12:20:13.617Z,26.95
2018-11-27T12:22:43.158Z,25.02
2018-11-27T12:25:12.563Z,25.10
2018-11-27T12:27:40.887Z,27.02
2018-11-27T12:30:13.183Z,27.42
2018-11-27T12:32:41.466Z,23.67
2018-11-27T12:35:10.763Z,29.82
2018-11-27T12:37:39.100Z,28.02
2018-11-27T12:40:29.716Z,24.92
2018-11-27T12:42:58.456Z,24.82
2018-11-27T12:45:29.418Z,29.07
2018-11-27T12:47:58.803Z,24.55
2018-11-27T12:50:31.201Z,23.67
2018-11-27T12:53:00.770Z,22.73
2018-11-27T12:55:30.410Z,21.90
2018-11-27T12:57:58.962Z,25.15
2018-11-27T13:00:27.450Z,22.58
2018-11-27T13:02:55.818Z,23.85
2018-11-27T13:05:25.569Z,23.30
2018-11-27T13:08:00.301Z,25.23
2018-11-27T13:10:28.639Z,30.15
2018-11-27T13:12:57.025Z,24.25
2018-11-27T13:15:25.449Z,23.92
2018-11-27T13:17:54.037Z,24.20
2018-11-27T13:20:22.375Z,20.12
2018-11-27T13:22:53.283Z,21.00
2018-11-27T13:25:24.294Z,22.98
2018-11-27T13:27:53.817Z,26.37
2018-11-27T13:30:27.343Z,21.12
2018-11-27T13:32:59.493Z,26.02
2018-11-27T13:35:27.847Z,23.18
2018-11-27T13:37:56.259Z,20.15
2018-11-27T13:40:24.730Z,21.60
2018-11-27T13:42:53.171Z,24.57
2018-11-27T13:45:21.561Z,20.70
2018-11-27T13:47:50.128Z,22.05
2018-11-27T13:50:18.448Z,23.10
2018-11-27T13:52:46.813Z,21.30
2018-11-27T13:55:22.052Z,20.82
2018-11-27T13:57:50.422Z,22.25
2018-11-27T14:00:19.661Z,23.98
2018-11-27T14:02:52.519Z,22.85
2018-11-27T14:05:23.387Z,21.20
2018-11-27T14:07:51.814Z,22.60
2018-11-27T14:10:20.661Z,23.40
2018-11-27T14:12:49.002Z,22.70
2018-11-27T14:15:19.312Z,24.70
2018-11-27T14:17:47.609Z,25.97
2018-11-27T14:20:16.071Z,23.80
2018-11-27T14:22:45.400Z,20.57
2018-11-27T14:25:14.169Z,31.10
2018-11-27T14:27:42.799Z,23.02
2018-11-27T14:30:16.928Z,26.10
2018-11-27T14:32:52.051Z,22.55
2018-11-27T14:35:21.365Z,24.35
2018-11-27T14:37:50.907Z,25.15
2018-11-27T14:40:20.481Z,25.15
2018-11-27T14:42:48.873Z,30.85
2018-11-27T14:45:20.221Z,21.77
2018-11-27T14:47:50.475Z,23.92
2018-11-27T14:50:18.914Z,24.12
2018-11-27T14:52:47.296Z,22.07
2018-11-27T14:55:18.837Z,20.20
2018-11-27T14:57:47.290Z,24.80
2018-11-27T15:00:17.733Z,28.92
2018-11-27T15:02:46.142Z,22.00
2018-11-27T15:05:19.838Z,21.35
2018-11-27T15:07:48.829Z,21.68
2018-11-27T15:10:17.189Z,20.12
2018-11-27T15:12:45.585Z,21.07
2018-11-27T15:15:14.137Z,24.12
2018-11-27T15:17:42.607Z,20.97
2018-11-27T15:20:13.286Z,28.57
2018-11-27T15:22:41.592Z,23.30
2018-11-27T15:25:10.164Z,20.95
2018-11-27T15:27:38.566Z,21.95
2018-11-27T15:30:10.744Z,25.08
2018-11-27T15:32:39.022Z,23.50
2018-11-27T15:35:07.453Z,21.75
2018-11-27T15:37:35.816Z,23.40
2018-11-27T15:40:04.314Z,21.50
2018-11-27T15:42:32.594Z,20.68
2018-11-27T15:45:01.003Z,23.98
2018-11-27T15:47:29.715Z,22.67
2018-11-27T15:49:58.096Z,27.85
2018-11-27T15:52:26.522Z,25.30
2018-11-27T15:54:55.196Z,24.05
2018-11-27T15:57:23.541Z,24.20
2018-11-27T15:59:51.934Z,24.70
2018-11-27T16:02:20.977Z,25.65
2018-11-27T16:04:49.788Z,23.20
2018-11-27T16:07:18.395Z,25.10
2018-11-27T16:09:46.846Z,26.27
2018-11-27T16:12:15.134Z,25.68
2018-11-27T16:14:43.529Z,27.32
2018-11-27T16:17:11.888Z,28.90
2018-11-27T16:19:40.449Z,24.05
2018-11-27T16:22:08.955Z,21.00
2018-11-27T16:24:37.421Z,26.23
2018-11-27T16:27:06.149Z,28.07
2018-11-27T16:29:34.752Z,27.37
2018-11-27T16:32:03.595Z,26.07
2018-11-27T16:34:32.211Z,24.12
2018-11-27T16:37:01.011Z,24.35
2018-11-27T16:39:29.692Z,24.12
2018-11-27T16:41:57.978Z,28.50
2018-11-27T16:44:26.332Z,29.12
2018-11-27T16:46:54.755Z,23.40
2018-11-27T16:49:23.167Z,29.32
2018-11-27T16:51:51.575Z,26.40
2018-11-27T16:54:20.043Z,27.82
2018-11-27T16:56:48.347Z,31.37
2018-11-27T16:59:16.667Z,32.05
2018-11-27T17:01:44.950Z,30.65
2018-11-27T17:04:13.296Z,31.42
2018-11-27T17:06:41.726Z,28.32
2018-11-27T17:09:10.835Z,25.85
2018-11-27T17:11:39.194Z,27.70
2018-11-27T17:14:07.965Z,26.85
2018-11-27T17:16:36.292Z,28.17
2018-11-27T17:19:04.643Z,27.42
2018-11-27T17:21:32.970Z,25.57
2018-11-27T17:24:01.331Z,28.07
2018-11-27T17:26:29.695Z,28.83
2018-11-27T17:28:58.148Z,28.38
2018-11-27T17:31:26.491Z,30.05
2018-11-27T17:34:06.601Z,31.60
2018-11-27T17:36:35.107Z,28.98
2018-11-27T17:39:03.931Z,27.07
2018-11-27T17:41:32.397Z,27.40
2018-11-27T17:44:00.775Z,27.10
2018-11-27T17:46:29.211Z,25.90
2018-11-27T17:48:57.808Z,26.62
2018-11-27T17:51:26.105Z,27.13
2018-11-27T17:53:54.433Z,28.87
2018-11-27T17:56:22.828Z,31.33
2018-11-27T17:58:51.179Z,32.42
2018-11-27T18:01:19.545Z,26.90
2018-11-27T18:03:47.953Z,27.67
2018-11-27T18:06:16.369Z,30.27
2018-11-27T18:08:44.736Z,33.65
2018-11-27T18:11:13.045Z,29.87
2018-11-27T18:13:41.323Z,28.50
2018-11-27T18:16:09.606Z,25.50
2018-11-27T18:18:37.863Z,32.08
2018-11-27T18:21:06.387Z,29.92
2018-11-27T18:23:34.925Z,26.35
2018-11-27T18:26:03.238Z,28.55
2018-11-27T18:28:31.593Z,28.55
2018-11-27T18:30:59.916Z,29.75
2018-11-27T18:33:28.283Z,29.18
2018-11-27T18:35:56.690Z,28.87
2018-11-27T18:38:25.196Z,30.50
2018-11-27T18:40:53.682Z,32.50
2018-11-27T18:43:22.057Z,33.33
2018-11-27T18:45:50.396Z,28.17
2018-11-27T18:48:18.708Z,33.13
2018-11-27T18:50:47.002Z,30.80
2018-11-27T18:53:15.278Z,31.77
2018-11-27T18:55:43.584Z,31.85
2018-11-27T18:58:11.881Z,37.15
2018-11-27T19:00:40.199Z,34.50
2018-11-27T19:03:08.516Z,33.98
2018-11-27T19:05:36.868Z,42.00
2018-11-27T19:08:05.364Z,39.23
2018-11-27T19:10:34.117Z,43.73
2018-11-27T19:13:02.911Z,37.73
2018-11-27T19:15:33.781Z,35.43
2018-11-27T19:18:37.634Z,39.40
2018-11-27T19:21:06.547Z,40.10
2018-11-27T19:23:34.903Z,38.17
2018-11-27T19:26:03.279Z,38.83
2018-11-27T19:28:31.722Z,39.63
2018-11-27T19:31:00.047Z,37.20
2018-11-27T19:33:28.422Z,38.50
2018-11-27T19:35:56.805Z,41.98
2018-11-27T19:38:25.137Z,31.95
2018-11-27T19:40:53.540Z,34.67
2018-11-27T19:43:21.953Z,37.15
2018-11-27T19:45:50.359Z,35.13
2018-11-27T19:48:18.697Z,40.90
2018-11-27T19:50:47.020Z,38.05
2018-11-27T19:53:17.018Z,39.38
2018-11-27T19:55:45.339Z,37.48
2018-11-27T19:58:13.733Z,36.55
2018-11-27T20:00:42.367Z,36.50
2018-11-27T20:03:11.794Z,36.50
2018-11-27T20:05:40.400Z,34.48
2018-11-27T20:08:11.079Z,38.08
2018-11-27T20:10:39.595Z,39.42
2018-11-27T20:13:08.145Z,35.43
2018-11-27T20:15:37.101Z,37.83
2018-11-27T20:18:05.521Z,41.23
2018-11-27T20:20:33.951Z,40.78
2018-11-27T20:23:02.333Z,38.65
2018-11-27T20:25:30.742Z,37.55
2018-11-27T20:27:59.092Z,39.23
2018-11-27T20:30:28.396Z,39.45
2018-11-27T20:32:57.798Z,47.85
2018-11-27T20:35:26.617Z,39.75
2018-11-27T20:37:55.339Z,37.40
2018-11-27T20:40:23.909Z,36.13
2018-11-27T20:42:52.236Z,35.98
2018-11-27T20:45:21.845Z,44.63
2018-11-27T20:48:06.260Z,38.20
2018-11-27T20:50:34.565Z,38.10
2018-11-27T20:53:02.945Z,40.25
2018-11-27T20:55:31.282Z,40.25
2018-11-27T20:57:59.902Z,28.40
2018-11-27T21:00:30.719Z,40.33
2018-11-27T21:03:00.204Z,38.08
2018-11-27T21:05:28.513Z,32.17
2018-11-27T21:07:57.006Z,33.83
2018-11-27T21:10:25.430Z,34.73
2018-11-27T21:12:53.891Z,31.33
2018-11-27T21:15:22.319Z,31.30
2018-11-27T21:17:50.763Z,35.13
2018-11-27T21:20:19.679Z,34.10
2018-11-27T21:22:47.803Z,31.30
2018-11-27T21:25:17.193Z,34.87
2018-11-27T21:28:22.418Z,38.33
2018-11-27T21:30:51.911Z,34.35
2018-11-27T21:33:20.370Z,28.33
2018-11-27T21:35:48.697Z,33.50
2018-11-27T21:38:17.061Z,32.33
2018-11-27T21:40:45.378Z,34.98
2018-11-27T21:43:13.790Z,32.28
2018-11-27T21:45:42.111Z,29.70
2018-11-27T21:48:10.465Z,29.83
2018-11-27T21:50:40.363Z,29.70
2018-11-27T21:53:08.704Z,32.33
2018-11-27T21:55:37.622Z,36.88
2018-11-27T21:58:06.498Z,32.67
2018-11-27T22:00:34.815Z,28.90
2018-11-27T22:03:03.400Z,39.35
2018-11-27T22:05:31.836Z,31.23
2018-11-27T22:08:00.217Z,33.88
2018-11-27T22:10:28.671Z,32.67
2018-11-27T22:12:57.902Z,36.85
2018-11-27T22:15:42.552Z,35.43
2018-11-27T22:18:11.659Z,35.00
2018-11-27T22:20:39.989Z,34.17
2018-11-27T22:23:09.048Z,35.47
2018-11-27T22:25:37.554Z,34.70
2018-11-27T22:28:06.992Z,33.03
2018-11-27T22:30:35.378Z,32.80
2018-11-27T22:33:04.570Z,35.20
2018-11-27T22:35:32.890Z,50.37
2018-11-27T22:38:01.303Z,33.07
2018-11-27T22:40:29.770Z,33.57
2018-11-27T22:42:58.206Z,31.77
2018-11-27T22:45:29.593Z,34.30
2018-11-27T22:47:57.965Z,32.83
2018-11-27T22:50:26.957Z,35.10
2018-11-27T22:52:55.273Z,31.60
2018-11-27T22:55:23.612Z,31.68
2018-11-27T22:57:52.007Z,33.27
2018-11-27T23:00:29.178Z,34.10
2018-11-27T23:07:27.362Z,31.30
2018-11-27T23:09:55.639Z,31.97
2018-11-27T23:12:24.033Z,31.53
2018-11-27T23:14:52.325Z,34.80
2018-11-27T23:17:20.718Z,30.90
2018-11-27T23:19:48.979Z,32.10
2018-11-27T23:22:17.304Z,36.23
2018-11-27T23:24:45.799Z,32.40
2018-11-27T23:27:14.100Z,33.63
2018-11-27T23:29:42.629Z,36.63
2018-11-27T23:32:10.937Z,38.40
2018-11-27T23:34:39.316Z,35.57
2018-11-27T23:37:07.690Z,34.33
2018-11-27T23:39:35.999Z,37.63
2018-11-27T23:42:04.334Z,36.35
2018-11-27T23:44:32.638Z,37.40
2018-11-27T23:47:00.930Z,35.93
2018-11-27T23:49:29.200Z,35.63
2018-11-27T23:51:57.640Z,39.30
2018-11-27T23:54:26.027Z,36.40
2018-11-27T23:56:54.350Z,40.43
2018-11-27T23:59:22.681Z,36.70
